Time;durP1;ratioP1;P1;durP2;ratioP2;P2;SDS_P1;SDS_P2;PMS_P1;PMS_P2;Temp;Humidity;BMP_temperature;BMP_pressure;BME280_temperature;BME280_humidity;BME280_pressure;Samples;Min_cycle;Max_cycle;Signal;HPM_P1;HPM_P2
2022/01/06 00:00:18;;;;;;;1.47;1.37;;;;;;;7.54;100.00;94911.38;5135005;27;20427;-54
2022/01/06 00:02:46;;;;;;;0.43;0.43;;;;;;;6.80;100.00;94908.22;5135235;27;20431;-53
2022/01/06 00:05:15;;;;;;;3.93;2.17;;;;;;;7.25;100.00;94910.25;5135442;27;20513;-54
2022/01/06 00:07:44;;;;;;;1.50;1.10;;;;;;;7.29;100.00;94912.09;5135155;27;20479;-54
2022/01/06 00:10:14;;;;;;;0.50;0.40;;;;;;;7.47;100.00;94895.03;5135242;27;20498;-54
2022/01/06 00:12:48;;;;;;;19.53;2.60;;;;;;;6.43;100.00;94913.50;5135322;27;20468;-54
2022/01/06 00:15:31;;;;;;;1.30;1.23;;;;;;;6.01;100.00;94904.75;5135481;27;20827;-53
2022/01/06 00:23:32;;;;;;;0.40;0.30;;;;;;;5.65;100.00;94917.53;5135037;27;20426;-54
2022/01/06 00:26:02;;;;;;;8.43;1.67;;;;;;;6.35;100.00;94917.38;5134720;27;20501;-54
2022/01/06 00:28:32;;;;;;;3.47;1.67;;;;;;;6.75;100.00;94916.06;5134816;27;20431;-54
2022/01/06 00:31:01;;;;;;;0.70;0.70;;;;;;;5.96;100.00;94747.69;5135108;27;20431;-54
2022/01/06 00:33:32;;;;;;;0.40;0.33;;;;;;;6.19;100.00;94914.91;5134688;27;20422;-54
2022/01/06 00:36:01;;;;;;;0.40;0.40;;;;;;;6.59;100.00;94906.50;5134635;27;20422;-54
2022/01/06 00:38:30;;;;;;;0.30;0.20;;;;;;;6.49;100.00;94909.84;5133443;27;20483;-54
2022/01/06 00:40:59;;;;;;;4.20;1.13;;;;;;;5.92;100.00;94908.88;5134559;27;20971;-54
2022/01/06 00:43:27;;;;;;;2.50;2.30;;;;;;;5.75;100.00;94903.69;5134466;27;20431;-54
2022/01/06 00:45:57;;;;;;;1.37;1.37;;;;;;;5.84;100.00;94896.16;5134805;27;20450;-54
2022/01/06 00:48:26;;;;;;;2.13;2.03;;;;;;;6.07;100.00;94909.78;5134404;27;20775;-54
2022/01/06 00:50:54;;;;;;;0.60;0.60;;;;;;;5.97;100.00;94908.94;5134749;27;20439;-54
2022/01/06 00:53:22;;;;;;;1.17;1.17;;;;;;;5.90;100.00;94924.91;5134315;27;20491;-54
2022/01/06 00:55:51;;;;;;;1.63;1.53;;;;;;;6.14;100.00;94923.56;5134143;27;20422;-54
2022/01/06 00:58:20;;;;;;;0.40;0.40;;;;;;;5.41;100.00;94816.38;5134117;27;20479;-54
2022/01/06 01:00:48;;;;;;;8.73;3.03;;;;;;;6.66;100.00;94920.22;5134115;27;20512;-54
2022/01/06 01:03:21;;;;;;;0.80;0.80;;;;;;;6.04;100.00;94920.84;5134166;27;20448;-54
2022/01/06 01:05:51;;;;;;;3.30;1.57;;;;;;;6.40;100.00;94927.16;5134037;27;20430;-53
2022/01/06 01:08:20;;;;;;;6.77;6.37;;;;;;;5.58;100.00;94921.41;5134311;27;20434;-54
2022/01/06 01:10:50;;;;;;;2.53;1.93;;;;;;;4.90;100.00;94922.72;5134028;27;20966;-54
2022/01/06 01:13:27;;;;;;;4.53;3.40;;;;;;;4.99;100.00;94920.47;5134326;27;20427;-54
2022/01/06 01:15:59;;;;;;;8.23;0.60;;;;;;;5.30;100.00;94911.09;5133903;27;20889;-54
2022/01/06 01:18:29;;;;;;;1.17;1.17;;;;;;;5.71;100.00;94911.31;5134444;27;20422;-54
2022/01/06 01:20:58;;;;;;;0.40;0.40;;;;;;;5.69;100.00;94908.09;5134025;27;20483;-54
2022/01/06 01:23:26;;;;;;;5.23;2.73;;;;;;;6.06;100.00;94908.22;5133892;27;20472;-54
2022/01/06 01:25:55;;;;;;;6.20;3.40;;;;;;;5.93;100.00;94899.94;5133468;27;20426;-54
2022/01/06 01:28:32;;;;;;;1.30;0.93;;;;;;;5.63;100.00;94905.69;5133356;27;20423;-54
2022/01/06 01:31:12;;;;;;;1.03;1.03;;;;;;;5.65;100.00;94885.19;5133496;27;20509;-54
2022/01/06 01:33:43;;;;;;;3.80;3.30;;;;;;;5.71;100.00;94905.25;5133698;27;20422;-54
2022/01/06 01:36:12;;;;;;;0.63;0.63;;;;;;;6.28;100.00;94898.38;5133689;27;20884;-54
2022/01/06 01:38:41;;;;;;;2.63;2.53;;;;;;;5.65;100.00;94901.78;5133482;27;20466;-53
2022/01/06 01:41:10;;;;;;;0.77;0.77;;;;;;;5.05;100.00;94825.75;5133395;27;20426;-54
2022/01/06 01:43:39;;;;;;;0.40;0.30;;;;;;;5.41;100.00;94883.91;5133439;27;20437;-54
2022/01/06 01:46:12;;;;;;;2.00;1.90;;;;;;;4.92;100.00;94883.88;5133399;27;20447;-54
2022/01/06 01:48:47;;;;;;;0.60;0.60;;;;;;;5.88;100.00;94900.69;5133564;27;20883;-54
2022/01/06 01:51:16;;;;;;;2.03;2.00;;;;;;;5.11;100.00;94787.97;5132308;27;20473;-54
2022/01/06 01:53:44;;;;;;;0.63;0.63;;;;;;;5.94;100.00;94893.66;5133084;27;20550;-54
2022/01/06 01:56:13;;;;;;;0.93;0.93;;;;;;;5.81;100.00;94884.31;5133463;27;20438;-54
2022/01/06 01:58:42;;;;;;;1.47;1.00;;;;;;;5.38;100.00;94872.06;5133455;27;20450;-54
2022/01/06 02:01:11;;;;;;;1.00;1.00;;;;;;;5.97;100.00;94893.91;5132812;27;20513;-54
2022/01/06 02:03:39;;;;;;;2.90;2.80;;;;;;;5.57;100.00;94825.19;5133430;27;20856;-54
2022/01/06 02:06:09;;;;;;;0.33;0.27;;;;;;;6.17;100.00;94893.31;5133327;27;20483;-54
2022/01/06 02:08:38;;;;;;;0.40;0.40;;;;;;;6.22;100.00;94891.50;5133160;27;20435;-54
2022/01/06 02:11:06;;;;;;;0.40;0.40;;;;;;;6.16;100.00;94887.25;5132911;27;20470;-54
2022/01/06 02:13:46;;;;;;;0.40;0.40;;;;;;;5.81;100.00;94875.63;5132910;27;20427;-54
2022/01/06 02:16:20;;;;;;;2.10;2.10;;;;;;;6.06;100.00;94892.44;5132829;27;20479;-54
2022/01/06 02:18:50;;;;;;;1.80;1.70;;;;;;;6.24;100.00;94867.56;5133058;27;20874;-54
2022/01/06 02:21:20;;;;;;;0.60;0.60;;;;;;;5.83;100.00;94889.28;5132564;27;20483;-54
2022/01/06 02:23:49;;;;;;;2.30;2.17;;;;;;;5.75;100.00;94890.53;5132730;27;20419;-54
2022/01/06 02:26:18;;;;;;;1.23;1.23;;;;;;;6.30;100.00;94892.84;5132829;27;20430;-54
2022/01/06 02:28:46;;;;;;;4.23;1.07;;;;;;;5.99;100.00;94897.13;5132851;27;20995;-54
2022/01/06 02:31:14;;;;;;;1.80;1.73;;;;;;;6.43;100.00;94915.31;5132655;28;20538;-54
2022/01/06 02:33:43;;;;;;;1.23;1.13;;;;;;;6.00;100.00;94830.28;5133160;27;20425;-54
2022/01/06 02:36:12;;;;;;;3.70;3.40;;;;;;;6.19;100.00;94883.31;5132676;27;20423;-54
2022/01/06 02:38:41;;;;;;;3.17;0.70;;;;;;;6.39;100.00;94880.84;5133023;28;20421;-54
2022/01/06 02:41:10;;;;;;;1.10;1.10;;;;;;;6.42;100.00;94856.66;5132962;28;20418;-54
2022/01/06 02:43:38;;;;;;;1.20;1.20;;;;;;;6.73;100.00;94883.94;5132657;27;21022;-54
2022/01/06 02:46:07;;;;;;;0.50;0.50;;;;;;;6.69;100.00;94880.22;5132662;27;20476;-55
2022/01/06 02:48:35;;;;;;;2.30;1.20;;;;;;;7.03;100.00;94876.19;5132825;28;20464;-54
2022/01/06 02:51:04;;;;;;;1.27;1.17;;;;;;;6.92;100.00;94875.34;5132481;28;20535;-54
2022/01/06 02:53:33;;;;;;;4.93;2.50;;;;;;;7.07;100.00;94873.81;5132795;28;20458;-54
2022/01/06 02:56:03;;;;;;;2.40;1.07;;;;;;;6.45;100.00;94879.03;5132611;28;20922;-54
2022/01/06 02:58:42;;;;;;;0.80;0.80;;;;;;;5.81;100.00;94884.31;5132901;27;20419;-54
2022/01/06 03:01:10;;;;;;;7.93;5.37;;;;;;;5.46;100.00;94869.00;5133986;27;20513;-54
2022/01/06 03:03:39;;;;;;;3.33;3.03;;;;;;;5.39;100.00;94871.00;5136505;27;20562;-54
2022/01/06 03:06:07;;;;;;;0.83;0.83;;;;;;;5.77;100.00;94904.22;5136482;27;20479;-54
2022/01/06 03:08:37;;;;;;;4.90;4.60;;;;;;;5.52;100.00;94885.59;5136501;27;20486;-54
2022/01/06 03:11:08;;;;;;;2.63;2.53;;;;;;;5.54;100.00;94880.91;5136623;27;20519;-54
2022/01/06 03:13:37;;;;;;;2.97;2.87;;;;;;;6.05;100.00;94903.19;5136386;27;20454;-54
2022/01/06 03:16:06;;;;;;;1.10;1.10;;;;;;;5.86;100.00;94888.84;5136634;27;20795;-54
2022/01/06 03:18:34;;;;;;;2.77;1.23;;;;;;;5.94;100.00;94894.44;5136414;27;20513;-55
2022/01/06 03:21:03;;;;;;;1.27;1.27;;;;;;;5.38;100.00;94905.44;5136126;27;20451;-55
2022/01/06 03:23:31;;;;;;;3.03;2.93;;;;;;;5.48;100.00;94921.31;5136487;27;20461;-54
2022/01/06 03:26:00;;;;;;;0.67;0.67;;;;;;;5.97;100.00;94917.59;5136356;27;20846;-54
2022/01/06 03:28:30;;;;;;;0.50;0.50;;;;;;;6.31;100.00;94924.22;5136116;27;20469;-54
2022/01/06 03:30:58;;;;;;;6.70;1.63;;;;;;;5.53;100.00;94924.78;5136066;27;20503;-54
2022/01/06 03:33:27;;;;;;;1.10;1.10;;;;;;;5.50;100.00;94919.22;5135993;27;20858;-54
2022/01/06 03:35:55;;;;;;;1.17;1.17;;;;;;;6.55;100.00;94929.13;5135428;27;20483;-54
2022/01/06 03:38:24;;;;;;;1.03;0.93;;;;;;;6.42;100.00;94917.19;5135889;27;20471;-54
2022/01/06 03:40:52;;;;;;;1.40;1.27;;;;;;;5.72;100.00;94917.31;5135026;27;20469;-54
2022/01/06 03:43:21;;;;;;;0.47;0.40;;;;;;;5.85;100.00;94911.72;5136055;27;20444;-54
2022/01/06 03:45:51;;;;;;;1.07;0.53;;;;;;;5.72;100.00;94930.47;5135675;27;20458;-54
2022/01/06 03:48:19;;;;;;;0.93;0.93;;;;;;;5.60;100.00;94925.38;5135740;27;20415;-54
2022/01/06 03:50:47;;;;;;;2.50;1.03;;;;;;;5.32;100.00;94911.66;5135497;27;20490;-54
2022/01/06 03:53:16;;;;;;;1.53;1.43;;;;;;;5.28;100.00;94910.56;5135544;27;20482;-54
2022/01/06 03:55:44;;;;;;;0.77;0.77;;;;;;;5.41;100.00;94918.06;5135504;27;20426;-54
2022/01/06 03:58:13;;;;;;;1.57;1.57;;;;;;;5.44;100.00;94926.25;5135083;27;20473;-54
2022/01/06 04:00:41;;;;;;;4.27;4.07;;;;;;;5.17;100.00;94925.41;5135233;27;20516;-54
2022/01/06 04:03:11;;;;;;;0.63;0.63;;;;;;;5.17;100.00;94888.63;5134735;27;20483;-54
2022/01/06 04:05:39;;;;;;;2.43;2.00;;;;;;;4.86;100.00;94926.84;5135322;27;20450;-54
2022/01/06 04:08:08;;;;;;;2.53;2.43;;;;;;;4.93;100.00;94931.94;5135551;27;20817;-54
2022/01/06 04:10:36;;;;;;;0.40;0.30;;;;;;;4.76;100.00;94925.94;5135563;27;20469;-54
2022/01/06 04:13:05;;;;;;;0.40;0.40;;;;;;;4.99;100.00;94889.75;5134309;27;20434;-54
2022/01/06 04:15:35;;;;;;;1.10;1.10;;;;;;;4.44;100.00;94934.44;5135503;27;20477;-54
2022/01/06 04:18:03;;;;;;;4.73;4.40;;;;;;;4.20;100.00;94930.38;5135318;27;20431;-54
2022/01/06 04:20:33;;;;;;;1.60;1.60;;;;;;;4.36;100.00;94944.53;5135517;27;20472;-54
2022/01/06 04:23:01;;;;;;;0.40;0.40;;;;;;;4.22;100.00;94941.44;5134852;27;20454;-53
2022/01/06 04:25:30;;;;;;;11.20;1.13;;;;;;;3.92;100.00;94956.69;5134923;27;20457;-54
2022/01/06 04:27:58;;;;;;;0.60;0.60;;;;;;;4.18;100.00;94927.19;5134888;27;20883;-54
2022/01/06 04:30:27;;;;;;;4.70;4.43;;;;;;;3.51;100.00;94968.25;5134965;27;20477;-54
2022/01/06 04:32:55;;;;;;;0.40;0.40;;;;;;;3.95;100.00;94943.06;5134885;27;20427;-54
2022/01/06 04:35:24;;;;;;;0.50;0.50;;;;;;;3.38;100.00;94968.53;5134435;27;20890;-54
2022/01/06 04:37:54;;;;;;;0.70;0.70;;;;;;;3.87;100.00;94953.16;5134772;27;20526;-54
2022/01/06 04:40:22;;;;;;;2.00;1.80;;;;;;;3.58;100.00;94970.72;5134184;27;20458;-54
2022/01/06 04:42:51;;;;;;;0.60;0.60;;;;;;;3.71;100.00;94960.75;5134593;27;20430;-54
2022/01/06 04:45:19;;;;;;;0.63;0.63;;;;;;;3.93;100.00;94954.81;5134510;27;20754;-54
2022/01/06 04:47:48;;;;;;;2.00;1.90;;;;;;;4.13;100.00;94963.03;5134705;27;20435;-54
2022/01/06 04:50:16;;;;;;;0.60;0.60;;;;;;;4.41;100.00;94969.00;5134649;27;20473;-54
2022/01/06 04:52:44;;;;;;;0.30;0.20;;;;;;;4.45;100.00;94954.38;5134639;27;20474;-54
2022/01/06 04:55:15;;;;;;;0.47;0.47;;;;;;;4.42;100.00;94964.56;5134737;27;20415;-54
2022/01/06 04:57:44;;;;;;;0.40;0.40;;;;;;;4.30;100.00;94956.75;5134538;27;20472;-54
2022/01/06 05:00:13;;;;;;;0.40;0.30;;;;;;;3.98;100.00;94957.53;5133897;27;20488;-54
2022/01/06 05:02:42;;;;;;;0.50;0.50;;;;;;;3.84;100.00;94926.38;5134174;27;20493;-54
2022/01/06 05:05:13;;;;;;;15.90;2.53;;;;;;;3.89;100.00;94969.44;5134410;27;20434;-54
2022/01/06 05:07:42;;;;;;;2.23;1.80;;;;;;;3.42;100.00;94956.53;5134089;27;20462;-54
2022/01/06 05:10:11;;;;;;;0.50;0.50;;;;;;;4.08;100.00;94969.00;5134087;27;20458;-54
2022/01/06 05:12:42;;;;;;;1.53;1.53;;;;;;;3.01;100.00;94886.09;5133925;27;20509;-54
2022/01/06 05:15:12;;;;;;;0.43;0.43;;;;;;;4.12;100.00;94977.19;5134163;27;20449;-54
2022/01/06 05:17:40;;;;;;;0.50;0.50;;;;;;;3.70;100.00;94977.50;5133925;27;20458;-54
2022/01/06 05:20:09;;;;;;;5.10;0.93;;;;;;;3.72;100.00;94975.44;5133868;27;20962;-54
2022/01/06 05:22:43;;;;;;;2.20;2.20;;;;;;;3.55;100.00;94984.28;5133768;27;20427;-54
2022/01/06 05:25:13;;;;;;;0.70;0.70;;;;;;;3.96;100.00;94976.13;5133710;27;20963;-54
2022/01/06 05:27:43;;;;;;;0.30;0.20;;;;;;;4.16;100.00;94973.06;5133735;27;20470;-54
2022/01/06 05:30:12;;;;;;;7.53;1.70;;;;;;;4.40;100.00;94988.41;5133771;27;20511;-54
2022/01/06 05:32:40;;;;;;;0.70;0.70;;;;;;;4.17;100.00;94987.75;5133653;27;20566;-54
2022/01/06 05:35:10;;;;;;;0.40;0.30;;;;;;;3.85;100.00;94985.63;5133901;27;20478;-54
2022/01/06 05:37:38;;;;;;;11.00;0.87;;;;;;;3.80;100.00;94990.00;5132742;27;20434;-53
2022/01/06 05:40:07;;;;;;;1.47;1.43;;;;;;;3.46;100.00;94986.50;5133454;27;20427;-54
2022/01/06 05:42:36;;;;;;;1.27;0.77;;;;;;;4.06;100.00;94988.63;5133206;27;20479;-53
2022/01/06 05:45:07;;;;;;;0.80;0.80;;;;;;;4.40;100.00;94983.16;5133211;27;20480;-53
2022/01/06 05:47:36;;;;;;;0.80;0.80;;;;;;;4.41;100.00;94984.75;5133233;27;20439;-53
2022/01/06 05:50:05;;;;;;;1.37;1.07;;;;;;;4.71;100.00;94994.09;5133140;27;20415;-54
2022/01/06 05:52:34;;;;;;;1.50;0.60;;;;;;;4.60;100.00;94990.56;5133260;27;20840;-53
2022/01/06 05:55:03;;;;;;;1.00;1.00;;;;;;;4.35;100.00;95005.91;5133203;27;20454;-53
2022/01/06 05:57:31;;;;;;;1.60;1.50;;;;;;;3.74;100.00;94994.34;5132810;27;20527;-53
2022/01/06 06:00:00;;;;;;;0.30;0.30;;;;;;;3.90;100.00;94989.41;5132901;27;20415;-53
2022/01/06 06:02:29;;;;;;;2.30;0.87;;;;;;;4.54;100.00;95001.19;5132710;27;20849;-53
2022/01/06 06:04:58;;;;;;;2.03;0.73;;;;;;;4.16;100.00;94994.03;5133123;27;20919;-53
2022/01/06 06:07:27;;;;;;;0.60;0.60;;;;;;;4.12;100.00;94980.63;5133455;27;20777;-53
2022/01/06 06:09:59;;;;;;;0.70;0.70;;;;;;;4.43;100.00;94989.75;5133110;27;20414;-53
2022/01/06 06:12:27;;;;;;;2.97;1.57;;;;;;;4.75;100.00;94966.34;5132783;27;20486;-53
2022/01/06 06:14:56;;;;;;;0.30;0.20;;;;;;;4.97;100.00;94996.88;5133056;27;20446;-54
2022/01/06 06:17:24;;;;;;;0.30;0.30;;;;;;;4.97;100.00;94986.38;5133161;27;20431;-54
2022/01/06 06:19:54;;;;;;;0.53;0.50;;;;;;;5.03;100.00;94990.63;5133095;27;20467;-54
2022/01/06 06:22:22;;;;;;;0.53;0.53;;;;;;;4.94;100.00;94978.16;5132831;27;20438;-53
2022/01/06 06:24:51;;;;;;;0.40;0.40;;;;;;;4.42;100.00;95004.72;5132822;27;20448;-53
2022/01/06 06:27:19;;;;;;;1.27;1.23;;;;;;;4.41;100.00;94992.63;5132724;27;20481;-53
2022/01/06 06:29:48;;;;;;;1.27;0.50;;;;;;;5.31;100.00;94994.16;5132914;27;20484;-53
2022/01/06 06:32:16;;;;;;;1.53;1.50;;;;;;;4.96;100.00;94992.63;5132952;28;20908;-54
2022/01/06 06:34:45;;;;;;;0.33;0.30;;;;;;;4.72;100.00;94999.13;5132589;27;20473;-54
2022/01/06 06:37:15;;;;;;;2.37;2.17;;;;;;;4.81;100.00;95005.56;5132299;27;20890;-54
2022/01/06 06:39:44;;;;;;;1.60;1.60;;;;;;;4.97;100.00;95003.94;5132651;28;20423;-53
2022/01/06 06:42:12;;;;;;;0.40;0.30;;;;;;;4.56;100.00;95007.81;5132486;28;20431;-53
2022/01/06 06:44:40;;;;;;;0.90;0.90;;;;;;;4.84;100.00;95014.78;5132550;28;20418;-53
2022/01/06 06:47:09;;;;;;;0.50;0.50;;;;;;;5.03;100.00;95019.53;5132331;28;20430;-53
2022/01/06 06:49:38;;;;;;;0.30;0.20;;;;;;;5.04;100.00;95010.63;5132580;28;20419;-53
2022/01/06 06:52:07;;;;;;;3.07;1.37;;;;;;;4.40;100.00;95026.97;5132422;28;20466;-53
2022/01/06 06:54:36;;;;;;;1.13;1.13;;;;;;;3.57;100.00;94964.69;5132564;27;20426;-53
2022/01/06 06:57:06;;;;;;;0.40;0.40;;;;;;;4.53;100.00;95045.00;5132298;27;20426;-53
2022/01/06 06:59:34;;;;;;;0.30;0.20;;;;;;;4.86;100.00;95045.00;5132414;28;20437;-53
2022/01/06 07:02:03;;;;;;;1.00;1.00;;;;;;;5.03;100.00;95045.00;5131993;28;20475;-54
2022/01/06 07:04:32;;;;;;;0.40;0.40;;;;;;;4.87;100.00;95044.00;5132141;28;20427;-53
2022/01/06 07:07:16;;;;;;;0.40;0.30;;;;;;;5.15;100.00;95061.47;5132443;28;20435;-53
2022/01/06 07:09:46;;;;;;;3.80;0.47;;;;;;;5.03;100.00;95050.25;5132403;28;20422;-53
2022/01/06 07:12:15;;;;;;;0.50;0.50;;;;;;;5.01;100.00;94984.84;5132621;28;20466;-53
2022/01/06 07:14:43;;;;;;;1.10;1.00;;;;;;;5.40;100.00;95045.25;5132872;28;20515;-53
2022/01/06 07:17:12;;;;;;;1.77;1.67;;;;;;;4.95;100.00;95040.16;5132627;28;20824;-53
2022/01/06 07:19:40;;;;;;;1.53;1.43;;;;;;;5.45;100.00;95058.44;5132790;28;20442;-54
2022/01/06 07:22:08;;;;;;;3.03;2.90;;;;;;;4.85;100.00;95056.56;5132380;28;20470;-53
2022/01/06 07:24:37;;;;;;;0.87;0.87;;;;;;;5.20;100.00;95052.84;5132427;28;20927;-53
2022/01/06 07:27:08;;;;;;;1.83;1.73;;;;;;;5.27;100.00;95042.97;5132269;28;20422;-53
2022/01/06 07:29:36;;;;;;;1.00;1.00;;;;;;;5.28;100.00;95031.44;5132318;28;20431;-53
2022/01/06 07:32:05;;;;;;;1.50;1.40;;;;;;;5.34;100.00;95048.88;5132325;28;20461;-54
2022/01/06 07:34:34;;;;;;;1.07;0.93;;;;;;;5.65;100.00;95048.19;5132081;28;20430;-54
2022/01/06 07:37:03;;;;;;;0.50;0.50;;;;;;;5.85;100.00;95045.03;5132092;28;20427;-54
2022/01/06 07:39:32;;;;;;;10.70;2.83;;;;;;;5.61;100.00;95047.09;5132453;28;20536;-54
2022/01/06 07:42:00;;;;;;;0.83;0.83;;;;;;;5.62;100.00;95041.59;5131899;27;20423;-54
2022/01/06 07:44:30;;;;;;;3.47;1.87;;;;;;;5.52;100.00;95022.25;5132107;28;20449;-54
2022/01/06 07:47:00;;;;;;;6.47;2.80;;;;;;;5.88;100.00;95036.66;5133286;27;20886;-54
2022/01/06 07:49:29;;;;;;;1.83;1.83;;;;;;;4.88;100.00;94880.16;5136258;27;20418;-54
2022/01/06 07:51:58;;;;;;;0.93;0.93;;;;;;;6.12;100.00;95044.00;5135967;27;20498;-54
2022/01/06 07:54:26;;;;;;;5.13;3.30;;;;;;;6.40;100.00;95041.13;5135598;27;21067;-54
2022/01/06 07:56:55;;;;;;;4.47;4.10;;;;;;;6.35;100.00;95048.97;5135560;27;20487;-54
2022/01/06 07:59:23;;;;;;;9.20;3.87;;;;;;;6.27;100.00;95062.56;5135692;27;20488;-54
2022/01/06 08:01:53;;;;;;;4.00;2.07;;;;;;;6.39;100.00;95059.81;5135428;27;20465;-54
2022/01/06 08:04:22;;;;;;;1.73;1.73;;;;;;;6.12;100.00;95067.69;5135692;27;20423;-54
2022/01/06 08:06:50;;;;;;;1.50;1.50;;;;;;;6.40;100.00;95066.66;5135354;27;20442;-54
2022/01/06 08:09:19;;;;;;;0.80;0.80;;;;;;;6.50;100.00;95050.97;5135500;27;20430;-54
2022/01/06 08:11:47;;;;;;;7.20;3.00;;;;;;;6.40;100.00;95061.38;5135179;27;20427;-54
2022/01/06 08:14:15;;;;;;;6.27;4.63;;;;;;;6.23;100.00;95071.22;5135655;27;20462;-54
2022/01/06 08:16:44;;;;;;;2.87;2.67;;;;;;;5.88;100.00;95058.50;5135278;27;20450;-54
2022/01/06 08:19:15;;;;;;;8.00;7.20;;;;;;;5.69;100.00;95068.47;5135840;27;20431;-54
2022/01/06 08:21:44;;;;;;;4.87;4.57;;;;;;;5.73;100.00;95060.91;5135377;27;20422;-54
2022/01/06 08:24:13;;;;;;;2.50;2.10;;;;;;;5.86;100.00;95065.03;5135086;27;20479;-53
2022/01/06 08:26:41;;;;;;;1.53;1.53;;;;;;;6.55;100.00;95058.91;5135625;27;20852;-54
2022/01/06 08:29:10;;;;;;;0.80;0.80;;;;;;;6.64;100.00;95056.59;5135064;27;20510;-54
2022/01/06 08:31:38;;;;;;;3.93;3.63;;;;;;;6.10;100.00;95066.34;5134923;27;20419;-53
2022/01/06 08:34:07;;;;;;;4.77;2.67;;;;;;;6.45;100.00;95068.56;5134604;27;20478;-53
2022/01/06 08:36:37;;;;;;;31.90;3.33;;;;;;;6.30;100.00;95072.63;5135201;27;20419;-54
2022/01/06 08:39:05;;;;;;;0.77;0.77;;;;;;;6.83;100.00;95071.00;5135453;27;20431;-54
2022/01/06 08:41:35;;;;;;;5.83;3.67;;;;;;;6.45;100.00;95073.81;5134159;27;20419;-53
2022/01/06 08:44:04;;;;;;;8.50;5.80;;;;;;;6.38;100.00;95074.81;5133915;27;20500;-53
2022/01/06 08:46:33;;;;;;;14.03;7.60;;;;;;;6.32;100.00;95075.78;5134915;27;20426;-53
2022/01/06 08:49:02;;;;;;;9.07;4.83;;;;;;;6.00;100.00;95076.75;5135158;27;20491;-53
2022/01/06 08:51:31;;;;;;;3.60;3.50;;;;;;;5.92;100.00;95079.84;5134552;27;20438;-54
2022/01/06 08:54:01;;;;;;;3.50;3.37;;;;;;;6.19;100.00;95075.41;5134809;27;20873;-54
2022/01/06 08:56:29;;;;;;;34.00;4.60;;;;;;;6.08;100.00;95015.81;5134916;27;20480;-54
2022/01/06 08:58:57;;;;;;;3.57;3.37;;;;;;;6.29;100.00;95078.13;5133922;27;20842;-53
2022/01/06 09:01:26;;;;;;;4.43;4.23;;;;;;;6.21;100.00;95086.47;5134301;27;20497;-53
2022/01/06 09:03:54;;;;;;;5.13;4.07;;;;;;;5.70;100.00;95074.53;5134635;27;21003;-53
2022/01/06 09:06:23;;;;;;;1.00;1.00;;;;;;;6.33;100.00;95074.75;5134645;27;20426;-53
2022/01/06 09:08:52;;;;;;;1.93;1.93;;;;;;;6.68;100.00;95062.97;5134217;27;20422;-54
2022/01/06 09:11:22;;;;;;;1.33;1.00;;;;;;;7.01;100.00;95025.81;5134162;27;20499;-53
2022/01/06 09:13:50;;;;;;;1.90;1.80;;;;;;;7.79;100.00;95074.25;5134208;27;20466;-54
2022/01/06 09:16:19;;;;;;;0.80;0.80;;;;;;;7.65;100.00;95077.34;5134185;27;20507;-53
2022/01/06 09:18:47;;;;;;;1.33;1.33;;;;;;;7.82;100.00;95069.22;5133980;27;20471;-53
2022/01/06 09:21:22;;;;;;;0.43;0.43;;;;;;;7.66;100.00;95071.00;5133870;27;20509;-53
2022/01/06 09:23:51;;;;;;;0.43;0.37;;;;;;;8.09;100.00;95080.44;5133166;27;20918;-54
2022/01/06 09:26:21;;;;;;;9.13;3.07;;;;;;;7.16;100.00;95064.66;5133876;27;20505;-53
2022/01/06 09:28:49;;;;;;;0.80;0.80;;;;;;;6.88;100.00;95063.91;5133858;27;20466;-53
2022/01/06 09:31:18;;;;;;;1.97;1.90;;;;;;;7.74;100.00;95066.31;5133842;27;20468;-53
2022/01/06 09:33:46;;;;;;;2.57;0.50;;;;;;;8.07;100.00;95064.03;5133724;27;20953;-54
2022/01/06 09:36:15;;;;;;;1.40;1.40;;;;;;;7.82;100.00;95052.63;5134049;27;20454;-54
2022/01/06 09:38:45;;;;;;;0.60;0.60;;;;;;;7.88;100.00;95048.94;5133779;27;20426;-54
2022/01/06 09:41:15;;;;;;;1.67;1.57;;;;;;;7.89;100.00;95053.16;5133463;27;20430;-54
2022/01/06 09:43:46;;;;;;;0.60;0.60;;;;;;;7.87;100.00;95050.00;5133367;27;20458;-54
2022/01/06 09:46:16;;;;;;;3.63;3.43;;;;;;;8.04;100.00;95058.50;5133861;27;20759;-53
2022/01/06 09:48:45;;;;;;;7.63;3.40;;;;;;;8.22;100.00;95050.13;5133431;27;20458;-54
2022/01/06 09:51:14;;;;;;;0.40;0.40;;;;;;;8.18;100.00;95034.00;5133621;27;20418;-54
2022/01/06 09:53:42;;;;;;;0.53;0.50;;;;;;;8.31;100.00;95043.28;5133668;27;20458;-54
2022/01/06 09:56:11;;;;;;;2.00;1.90;;;;;;;8.17;100.00;95042.94;5133435;27;20434;-54
2022/01/06 09:58:39;;;;;;;2.10;2.00;;;;;;;8.30;100.00;95025.84;5133319;27;20469;-53
2022/01/06 10:01:09;;;;;;;2.77;2.47;;;;;;;8.31;100.00;95040.66;5133351;27;20819;-53
2022/01/06 10:03:41;;;;;;;3.60;3.40;;;;;;;8.39;100.00;95042.78;5133257;27;20434;-53
2022/01/06 10:06:11;;;;;;;1.23;1.23;;;;;;;8.11;100.00;95020.25;5133463;27;20869;-53
2022/01/06 10:08:40;;;;;;;0.90;0.70;;;;;;;7.79;100.00;95034.66;5132732;27;20459;-53
2022/01/06 10:11:14;;;;;;;2.40;2.30;;;;;;;7.97;100.00;95031.56;5132021;27;21014;-53
2022/01/06 10:13:45;;;;;;;1.03;1.03;;;;;;;7.96;100.00;95040.53;5133379;27;20789;-53
2022/01/06 10:16:17;;;;;;;4.23;3.50;;;;;;;7.93;100.00;95043.66;5132964;27;21019;-53
2022/01/06 10:19:01;;;;;;;1.23;1.23;;;;;;;8.08;100.00;95026.03;5133062;27;20423;-53
2022/01/06 10:21:40;;;;;;;2.27;2.17;;;;;;;8.49;100.00;95037.50;5133355;27;20521;-53
2022/01/06 10:24:11;;;;;;;1.73;1.63;;;;;;;8.66;100.00;95037.25;5132825;27;20411;-53
2022/01/06 10:26:52;;;;;;;1.37;1.37;;;;;;;8.91;100.00;95038.03;5133365;27;20430;-53
2022/01/06 10:29:21;;;;;;;6.90;1.27;;;;;;;9.32;100.00;95033.50;5133045;27;20493;-53
2022/01/06 10:31:51;;;;;;;0.63;0.63;;;;;;;9.65;100.00;95024.16;5132679;27;20985;-53
2022/01/06 10:34:20;;;;;;;0.70;0.70;;;;;;;9.16;100.00;95025.88;5133110;27;21003;-52
2022/01/06 10:36:49;;;;;;;3.03;2.90;;;;;;;8.94;100.00;95023.50;5132625;28;20517;-52
2022/01/06 10:39:17;;;;;;;2.03;1.00;;;;;;;9.05;100.00;95024.28;5132886;28;20990;-53
2022/01/06 10:41:46;;;;;;;1.23;1.23;;;;;;;9.69;100.00;95009.31;5132760;28;20427;-52
2022/01/06 10:44:14;;;;;;;2.90;2.70;;;;;;;9.40;100.00;95008.34;5133022;28;20430;-53
2022/01/06 10:46:45;;;;;;;2.37;2.17;;;;;;;9.18;100.00;95010.53;5132771;28;20504;-52
2022/01/06 10:49:18;;;;;;;8.20;3.17;;;;;;;8.84;100.00;95008.47;5133049;27;20429;-52
2022/01/06 10:51:48;;;;;;;1.83;1.73;;;;;;;8.42;100.00;95001.84;5132962;28;20431;-52
2022/01/06 10:54:18;;;;;;;0.97;0.97;;;;;;;8.68;100.00;94998.94;5132786;28;21090;-52
2022/01/06 10:57:00;;;;;;;6.43;1.40;;;;;;;9.47;100.00;94993.78;5133165;28;20422;-53
2022/01/06 10:59:33;;;;;;;1.10;1.10;;;;;;;8.82;100.00;94999.22;5132633;28;20867;-52
2022/01/06 11:02:03;;;;;;;3.23;3.03;;;;;;;9.12;100.00;94998.38;5132422;28;20549;-52
2022/01/06 11:04:34;;;;;;;2.40;2.20;;;;;;;9.49;100.00;94988.22;5132477;28;20980;-53
2022/01/06 11:07:02;;;;;;;2.23;2.13;;;;;;;9.30;100.00;94976.66;5132589;27;21228;-53
2022/01/06 11:09:31;;;;;;;7.87;3.83;;;;;;;9.08;100.00;94979.63;5132784;27;20427;-53
2022/01/06 11:14:46;;;;;;;0.97;0.90;;;;;;;9.05;100.00;94902.69;5132303;28;20474;-53
2022/01/06 11:17:14;;;;;;;4.33;0.80;;;;;;;9.69;100.00;94969.63;5131927;28;20427;-53
2022/01/06 11:19:44;;;;;;;6.43;2.23;;;;;;;9.63;100.00;94961.97;5132401;28;20573;-53
2022/01/06 11:22:13;;;;;;;7.57;2.33;;;;;;;9.32;100.00;94959.47;5133907;27;20479;-53
2022/01/06 11:24:52;;;;;;;22.87;3.60;;;;;;;9.17;100.00;94958.69;5135241;27;20449;-53
2022/01/06 11:27:32;;;;;;;1.47;1.40;;;;;;;9.01;100.00;94954.50;5133869;27;20430;-53
2022/01/06 11:30:12;;;;;;;2.20;2.10;;;;;;;9.21;100.00;94947.31;5135132;27;20434;-53
2022/01/06 11:32:42;;;;;;;1.80;1.80;;;;;;;9.09;100.00;94948.66;5134848;27;20491;-53
2022/01/06 11:35:17;;;;;;;3.13;2.40;;;;;;;9.48;100.00;94953.06;5134819;27;21005;-53
2022/01/06 11:37:47;;;;;;;1.77;1.47;;;;;;;9.49;100.00;94943.25;5135315;27;20422;-53
2022/01/06 11:40:18;;;;;;;0.80;0.80;;;;;;;9.84;100.00;94944.97;5136062;27;20512;-53
2022/01/06 11:42:54;;;;;;;3.93;3.83;;;;;;;9.69;100.00;94939.75;5136041;27;20462;-52
2022/01/06 11:45:23;;;;;;;7.43;0.73;;;;;;;9.63;100.00;94940.81;5136075;27;20463;-53
2022/01/06 11:48:01;;;;;;;6.03;2.73;;;;;;;9.13;100.00;94936.53;5135652;27;20446;-53
2022/01/06 11:50:37;;;;;;;1.93;1.73;;;;;;;9.60;100.00;94923.63;5135622;27;20446;-53
2022/01/06 11:53:07;;;;;;;1.33;1.33;;;;;;;9.65;100.00;94920.97;5135466;27;20926;-54